Time;durP1;ratioP1;P1;durP2;ratioP2;P2;SDS_P1;SDS_P2;PMS_P1;PMS_P2;Temp;Humidity;BMP_temperature;BMP_pressure;BME280_temperature;BME280_humidity;BME280_pressure;Samples;Min_cycle;Max_cycle;Signal;HPM_P1;HPM_P2
2023/02/03 00:04:51;;;;;;;4.90;2.50;;;;;;;0.22;80.66;99424.58;221306;1280;24394;-77
2023/02/03 00:09:55;;;;;;;4.00;2.50;;;;;;;0.25;80.77;99427.98;221397;1273;22534;-76
2023/02/03 00:15:04;;;;;;;6.70;3.40;;;;;;;0.28;80.78;99431.94;221408;1279;24299;-77
2023/02/03 00:20:07;;;;;;;6.60;4.00;;;;;;;0.32;81.12;99441.02;221524;1277;22609;-76
2023/02/03 00:25:10;;;;;;;7.90;5.00;;;;;;;0.31;81.09;99448.81;221482;1278;23358;-75
2023/02/03 00:30:33;;;;;;;7.70;4.10;;;;;;;0.31;81.04;99454.88;221146;1279;23025;-77
2023/02/03 00:35:39;;;;;;;10.00;4.80;;;;;;;0.31;81.11;99457.30;221163;1282;22633;-76
2023/02/03 00:40:41;;;;;;;9.50;5.00;;;;;;;0.33;81.19;99461.73;220877;1282;22674;-75
2023/02/03 00:45:43;;;;;;;6.50;4.00;;;;;;;0.33;80.97;99458.91;221038;1279;23817;-77
2023/02/03 00:50:49;;;;;;;7.50;3.60;;;;;;;0.31;80.74;99459.77;221115;1280;22583;-76
2023/02/03 00:55:51;;;;;;;6.80;4.10;;;;;;;0.25;80.80;99455.90;221419;1278;22634;-75
2023/02/03 01:00:58;;;;;;;6.00;4.30;;;;;;;0.21;80.90;99455.09;221548;1277;22484;-76
2023/02/03 01:06:13;;;;;;;8.30;4.60;;;;;;;0.18;80.90;99453.23;221391;1276;22544;-76
2023/02/03 01:11:24;;;;;;;7.40;4.60;;;;;;;0.16;80.91;99446.48;221316;1274;27516;-76
2023/02/03 01:16:30;;;;;;;7.80;5.10;;;;;;;0.12;81.17;99450.73;221233;1280;22546;-76
2023/02/03 01:21:35;;;;;;;8.60;5.20;;;;;;;0.09;81.11;99443.46;221561;1276;22520;-76
2023/02/03 01:26:39;;;;;;;10.40;5.70;;;;;;;0.04;81.49;99440.02;221557;1280;22563;-76
2023/02/03 01:31:41;;;;;;;9.20;5.80;;;;;;;-0.05;81.21;99441.17;221445;1278;22530;-76
2023/02/03 01:36:45;;;;;;;8.00;5.10;;;;;;;-0.19;81.15;99448.19;221262;1280;22599;-77
2023/02/03 01:41:48;;;;;;;9.40;5.50;;;;;;;-0.37;81.22;99448.52;221376;1276;22537;-76
2023/02/03 01:46:50;;;;;;;8.60;5.00;;;;;;;-0.55;81.46;99445.55;221192;1267;23137;-75
2023/02/03 01:51:55;;;;;;;8.20;4.10;;;;;;;-0.74;81.42;99440.11;221309;1280;24288;-76
2023/02/03 01:57:03;;;;;;;8.10;4.30;;;;;;;-0.94;81.09;99439.34;221581;1257;24154;-76
2023/02/03 02:02:07;;;;;;;7.40;4.50;;;;;;;-1.10;81.76;99441.38;221344;1280;22540;-75
2023/02/03 02:07:10;;;;;;;8.70;4.80;;;;;;;-1.19;81.99;99431.41;221680;1280;24452;-75
2023/02/03 02:12:15;;;;;;;9.80;5.00;;;;;;;-1.22;82.16;99426.12;221609;1280;25180;-76
2023/02/03 02:17:54;;;;;;;7.20;4.50;;;;;;;-1.22;82.24;99411.42;221391;1259;22534;-76
2023/02/03 02:23:18;;;;;;;9.60;5.30;;;;;;;-1.19;82.61;99402.41;221423;1278;22589;-76
2023/02/03 02:28:51;;;;;;;7.70;4.90;;;;;;;-1.12;82.73;99399.34;221477;1280;23760;-76
2023/02/03 02:34:22;;;;;;;7.40;4.80;;;;;;;-1.02;82.97;99394.94;221481;1278;22538;-76
2023/02/03 02:39:49;;;;;;;7.30;4.90;;;;;;;-0.95;82.84;99380.61;221321;1278;244884;-76
2023/02/03 02:45:04;;;;;;;12.20;6.20;;;;;;;-0.90;83.17;99363.91;221462;1280;22547;-76
2023/02/03 02:50:15;;;;;;;7.40;5.20;;;;;;;-0.90;82.88;99356.99;221365;1276;22537;-76
2023/02/03 02:55:23;;;;;;;7.50;4.40;;;;;;;-0.93;82.94;99354.04;221326;1279;22527;-75
2023/02/03 03:00:30;;;;;;;8.50;5.30;;;;;;;-0.97;82.79;99357.08;221284;1278;24141;-75
2023/02/03 03:05:33;;;;;;;6.40;4.30;;;;;;;-1.00;83.05;99356.74;221390;1259;23907;-75
2023/02/03 03:10:40;;;;;;;7.20;3.80;;;;;;;-1.04;83.01;99371.04;221480;1275;23996;-76
2023/02/03 03:15:44;;;;;;;5.10;3.70;;;;;;;-1.07;82.74;99378.48;221544;1280;22541;-76
2023/02/03 03:20:50;;;;;;;7.40;4.40;;;;;;;-1.07;82.85;99381.58;221485;1260;22530;-76
2023/02/03 03:26:01;;;;;;;7.80;4.40;;;;;;;-1.07;82.90;99380.33;221422;1268;22565;-77
2023/02/03 03:31:04;;;;;;;7.90;5.00;;;;;;;-1.09;82.85;99360.23;221545;1276;25341;-75
2023/02/03 03:36:25;;;;;;;6.00;4.60;;;;;;;-1.09;82.83;99354.59;221234;1280;22542;-75
2023/02/03 03:41:54;;;;;;;8.60;5.20;;;;;;;-1.09;82.88;99335.21;221600;1269;22552;-75
2023/02/03 03:47:28;;;;;;;8.90;4.90;;;;;;;-1.11;83.26;99323.42;221675;1278;24277;-75
2023/02/03 03:52:34;;;;;;;7.30;4.50;;;;;;;-1.15;83.22;99314.66;221278;1275;25307;-76
2023/02/03 03:57:55;;;;;;;7.90;4.20;;;;;;;-1.17;83.18;99307.54;221547;1276;23979;-75
2023/02/03 04:03:03;;;;;;;7.90;4.80;;;;;;;-1.19;82.95;99303.73;221654;1280;24233;-75
2023/02/03 04:08:06;;;;;;;6.90;5.20;;;;;;;-1.20;83.40;99302.42;221464;1272;23223;-75
2023/02/03 04:13:10;;;;;;;7.90;5.30;;;;;;;-1.20;83.61;99298.10;221427;1280;25364;-75
2023/02/03 04:18:14;;;;;;;8.80;6.10;;;;;;;-1.19;83.74;99284.93;221414;1280;22540;-75
2023/02/03 04:23:16;;;;;;;9.20;6.70;;;;;;;-1.18;83.49;99282.73;221354;1280;25246;-75
2023/02/03 04:28:19;;;;;;;8.80;5.60;;;;;;;-1.16;83.57;99276.58;221330;1278;24234;-76
2023/02/03 04:33:21;;;;;;;8.70;6.60;;;;;;;-1.15;83.45;99269.73;221368;1280;22672;-75
2023/02/03 04:38:25;;;;;;;12.40;7.80;;;;;;;-1.15;83.26;99262.31;221557;1280;22523;-76
2023/02/03 04:43:27;;;;;;;14.10;9.60;;;;;;;-1.15;83.60;99255.77;221373;1278;23228;-76
2023/02/03 04:48:32;;;;;;;16.80;11.20;;;;;;;-1.15;83.68;99252.30;221560;1280;22575;-75
2023/02/03 04:53:34;;;;;;;19.90;12.20;;;;;;;-1.14;83.55;99241.52;221575;1279;23225;-76
2023/02/03 04:58:37;;;;;;;17.10;10.80;;;;;;;-1.13;83.65;99239.05;221503;1262;25524;-76
2023/02/03 05:03:40;;;;;;;20.20;11.10;;;;;;;-1.12;83.93;99234.66;221676;1275;25562;-76
2023/02/03 05:08:42;;;;;;;19.20;12.80;;;;;;;-1.12;83.89;99226.39;221617;1280;22527;-76
2023/02/03 05:13:45;;;;;;;21.30;14.10;;;;;;;-1.12;83.96;99205.06;221199;1280;22663;-77
2023/02/03 05:18:48;;;;;;;19.80;14.00;;;;;;;-1.11;83.98;99188.97;221568;1272;22718;-75
2023/02/03 05:23:53;;;;;;;20.30;13.70;;;;;;;-1.11;84.06;99180.97;221489;1276;26651;-76
2023/02/03 05:28:55;;;;;;;17.60;12.50;;;;;;;-1.10;84.06;99176.27;221430;1280;23201;-75
2023/02/03 05:33:58;;;;;;;25.80;13.70;;;;;;;-1.11;84.21;99168.52;221336;1280;22587;-76
2023/02/03 05:39:00;;;;;;;21.60;12.70;;;;;;;-1.10;84.31;99159.15;221315;1276;24279;-75
2023/02/03 05:44:05;;;;;;;20.20;14.00;;;;;;;-1.09;83.85;99152.88;221439;1277;22537;-75
2023/02/03 05:49:08;;;;;;;21.90;14.80;;;;;;;-1.08;83.83;99144.67;221224;1280;22559;-76
2023/02/03 05:54:10;;;;;;;27.80;20.40;;;;;;;-1.05;84.14;99131.16;221454;1279;22714;-75
2023/02/03 05:59:12;;;;;;;23.40;16.40;;;;;;;-1.00;84.14;99132.89;221488;1280;22658;-75
2023/02/03 06:04:15;;;;;;;21.90;15.00;;;;;;;-0.99;83.49;99131.95;221297;1280;24525;-75
2023/02/03 06:09:17;;;;;;;21.50;13.40;;;;;;;-0.99;83.80;99126.77;221309;1278;22535;-76
2023/02/03 06:14:20;;;;;;;19.80;11.90;;;;;;;-0.98;83.36;99113.44;221632;1280;25422;-76
2023/02/03 06:19:22;;;;;;;25.60;12.40;;;;;;;-0.98;83.28;99114.08;221272;1280;22634;-75
2023/02/03 06:24:25;;;;;;;21.10;11.30;;;;;;;-0.97;83.33;99102.25;221384;1278;25302;-75
2023/02/03 06:29:27;;;;;;;17.50;9.50;;;;;;;-0.95;82.99;99102.66;221309;1280;22710;-76
2023/02/03 06:34:31;;;;;;;12.90;8.20;;;;;;;-0.93;82.81;99095.77;221249;1280;22788;-76
2023/02/03 06:39:34;;;;;;;14.10;9.10;;;;;;;-0.91;82.38;99088.34;221362;1262;22549;-76
2023/02/03 06:44:37;;;;;;;14.00;7.30;;;;;;;-0.87;82.39;99080.45;221471;1272;22548;-75
2023/02/03 06:49:42;;;;;;;13.30;7.40;;;;;;;-0.81;82.60;99069.14;221621;1270;22540;-75
2023/02/03 06:54:44;;;;;;;14.60;8.60;;;;;;;-0.75;82.36;99061.08;221678;1279;24243;-75
2023/02/03 06:59:46;;;;;;;12.10;6.80;;;;;;;-0.65;82.32;99053.48;221976;1262;139997;-77
2023/02/03 07:04:51;;;;;;;12.80;7.10;;;;;;;-0.55;81.75;99041.64;222024;1262;139820;-76
2023/02/03 07:09:56;;;;;;;13.40;6.60;;;;;;;-0.47;81.61;99035.50;222240;1262;22978;-76
2023/02/03 07:14:58;;;;;;;11.40;7.00;;;;;;;-0.40;81.28;99024.46;221648;1266;138855;-76
2023/02/03 07:20:00;;;;;;;10.20;5.60;;;;;;;-0.33;80.79;99019.45;221768;1272;139129;-77
2023/02/03 07:25:05;;;;;;;11.10;5.90;;;;;;;-0.27;80.57;99013.65;221772;1266;139076;-76
2023/02/03 07:30:11;;;;;;;9.40;5.50;;;;;;;-0.22;80.16;99009.96;221596;1272;141829;-77
2023/02/03 07:35:14;;;;;;;11.00;5.90;;;;;;;-0.16;80.22;99009.30;221612;1274;138686;-76
2023/02/03 07:40:17;;;;;;;10.20;6.70;;;;;;;-0.11;80.01;99013.62;221699;1262;22538;-75
2023/02/03 07:45:21;;;;;;;11.80;7.00;;;;;;;-0.06;80.07;99010.02;221447;1279;138401;-75
2023/02/03 07:50:23;;;;;;;12.10;6.10;;;;;;;0.00;80.05;99002.91;222010;1268;138494;-76
2023/02/03 07:55:25;;;;;;;11.40;6.30;;;;;;;0.10;79.86;98991.42;221573;1272;139058;-75
2023/02/03 08:00:27;;;;;;;9.50;6.00;;;;;;;0.19;80.20;98987.40;221743;1272;138885;-75
2023/02/03 08:05:30;;;;;;;9.20;5.40;;;;;;;0.25;79.75;98977.08;221489;1265;138327;-75
2023/02/03 08:10:32;;;;;;;9.70;5.30;;;;;;;0.32;79.70;98977.57;221673;1273;22662;-75
2023/02/03 08:15:35;;;;;;;12.00;5.80;;;;;;;0.37;79.19;98968.23;221430;1266;138016;-74
2023/02/03 08:20:39;;;;;;;10.10;5.60;;;;;;;0.41;79.83;98959.06;221691;1267;138824;-73
2023/02/03 08:25:41;;;;;;;9.50;5.80;;;;;;;0.39;81.59;98951.81;221968;1265;139038;-75
2023/02/03 08:30:43;;;;;;;11.20;5.90;;;;;;;0.34;81.85;98939.64;221783;1277;138952;-74
2023/02/03 08:35:50;;;;;;;13.40;9.20;;;;;;;0.29;81.81;98920.98;221844;1262;139476;-74
2023/02/03 08:40:52;;;;;;;11.60;7.20;;;;;;;0.25;82.34;98906.45;221583;1270;138908;-73
2023/02/03 08:45:54;;;;;;;13.90;8.30;;;;;;;0.20;82.90;98899.05;221701;1272;23122;-74
2023/02/03 08:50:56;;;;;;;12.70;7.70;;;;;;;0.24;82.87;98892.52;221494;1275;138568;-75
2023/02/03 08:56:07;;;;;;;14.80;10.20;;;;;;;0.33;83.34;98878.39;221675;1263;139129;-73
2023/02/03 09:01:12;;;;;;;15.60;10.30;;;;;;;0.41;83.50;98863.95;221588;1268;139482;-74
2023/02/03 09:06:15;;;;;;;16.40;10.50;;;;;;;0.41;83.47;98846.13;221450;1276;138098;-75
2023/02/03 09:11:30;;;;;;;19.00;12.70;;;;;;;0.43;83.57;98842.32;221667;1279;139106;-74
2023/02/03 09:16:34;;;;;;;18.00;12.70;;;;;;;0.46;83.69;98825.46;221645;1258;22533;-75
2023/02/03 09:21:36;;;;;;;17.20;10.90;;;;;;;0.54;84.17;98807.66;221674;1273;138584;-74
2023/02/03 09:26:54;;;;;;;17.00;12.30;;;;;;;0.57;83.92;98795.63;221774;1279;139111;-78
2023/02/03 09:32:05;;;;;;;18.30;11.50;;;;;;;0.57;84.25;98777.05;221992;1267;139607;-77
2023/02/03 09:37:11;;;;;;;12.20;8.50;;;;;;;0.64;84.78;98756.89;221958;1278;138620;-77
2023/02/03 09:43:09;;;;;;;12.80;7.90;;;;;;;0.68;84.64;98740.45;221746;1278;139235;-77
2023/02/03 09:48:24;;;;;;;14.90;10.60;;;;;;;0.69;85.64;98725.11;221515;1271;138770;-76
2023/02/03 09:53:47;;;;;;;18.20;11.10;;;;;;;0.72;86.09;98701.19;221468;1278;140060;-76
2023/02/03 09:58:49;;;;;;;18.00;11.40;;;;;;;0.72;86.47;98678.44;221353;1282;139348;-77
2023/02/03 10:04:21;;;;;;;15.40;10.30;;;;;;;0.76;86.50;98659.37;221506;1279;22748;-77
2023/02/03 10:09:43;;;;;;;19.30;12.80;;;;;;;0.83;86.63;98649.45;222056;1258;138387;-78
2023/02/03 10:15:31;;;;;;;18.00;12.00;;;;;;;0.83;86.58;98639.00;221963;1273;139040;-78
2023/02/03 10:20:56;;;;;;;16.70;10.00;;;;;;;0.87;86.67;98626.32;221552;1277;138579;-79
2023/02/03 10:26:26;;;;;;;12.90;8.20;;;;;;;0.92;86.72;98605.24;221966;1264;138585;-82
2023/02/03 10:31:35;;;;;;;12.20;7.80;;;;;;;0.91;88.82;98585.09;221775;1273;138920;-78
2023/02/03 10:37:22;;;;;;;10.70;6.90;;;;;;;0.89;88.42;98564.39;223413;1260;138573;-78
2023/02/03 10:43:46;;;;;;;11.60;7.60;;;;;;;0.90;89.75;98541.10;221836;1273;138632;-79
2023/02/03 10:47:52;;;;;;;11.50;8.60;;;;;;;0.92;90.35;98535.90;222214;1261;139060;-79
2023/02/03 10:53:39;;;;;;;11.20;8.00;;;;;;;0.94;90.72;98524.77;223797;1263;139229;-79
2023/02/03 10:58:53;;;;;;;17.80;8.50;;;;;;;0.95;90.58;98510.02;220954;1263;138769;-78
2023/02/03 11:04:02;;;;;;;10.90;7.30;;;;;;;0.96;89.99;98491.19;221934;1265;22554;-77
2023/02/03 11:09:27;;;;;;;9.80;7.50;;;;;;;1.00;89.92;98472.11;222072;1258;138486;-78
2023/02/03 11:14:38;;;;;;;9.80;6.30;;;;;;;1.03;90.46;98451.36;221897;1258;139105;-79
2023/02/03 11:19:45;;;;;;;9.80;6.70;;;;;;;1.10;90.09;98432.71;221932;1260;138390;-79
2023/02/03 11:24:47;;;;;;;11.00;6.50;;;;;;;1.16;90.19;98406.73;222177;1260;138976;-80
2023/02/03 11:30:14;;;;;;;8.80;6.40;;;;;;;1.19;89.38;98389.39;221876;1263;138695;-78
2023/02/03 11:35:25;;;;;;;9.30;6.20;;;;;;;1.22;89.32;98374.75;221707;1274;138463;-79
2023/02/03 11:40:32;;;;;;;9.80;6.50;;;;;;;1.26;89.50;98357.42;221902;1279;25246;-79
2023/02/03 11:45:53;;;;;;;8.60;7.10;;;;;;;1.28;89.30;98338.98;221830;1273;138324;-80
2023/02/03 11:51:13;;;;;;;8.10;5.80;;;;;;;1.31;89.06;98316.50;221886;1276;138249;-79
2023/02/03 11:56:27;;;;;;;8.30;6.70;;;;;;;1.38;89.08;98306.27;221749;1259;138759;-79
2023/02/03 12:02:06;;;;;;;8.60;5.40;;;;;;;1.42;89.06;98296.54;222157;1270;138493;-79
2023/02/03 12:07:36;;;;;;;7.50;5.30;;;;;;;1.44;89.18;98278.05;222062;1266;138585;-82
2023/02/03 12:13:19;;;;;;;7.10;4.80;;;;;;;1.43;89.32;98254.02;221670;1277;138356;-78
2023/02/03 12:18:45;;;;;;;9.10;6.00;;;;;;;1.41;89.20;98241.28;221893;1279;138517;-80
2023/02/03 12:24:07;;;;;;;8.30;5.50;;;;;;;1.40;89.16;98225.28;221732;1274;138358;-80
2023/02/03 12:29:30;;;;;;;8.90;6.40;;;;;;;1.37;89.30;98200.59;221522;1280;138326;-78
2023/02/03 12:34:40;;;;;;;7.60;5.80;;;;;;;1.37;89.74;98180.80;221499;1279;22655;-78
2023/02/03 12:39:51;;;;;;;9.80;6.70;;;;;;;1.38;89.46;98170.95;221752;1272;137975;-77
2023/02/03 12:45:01;;;;;;;8.00;5.90;;;;;;;1.38;89.69;98161.27;221664;1280;138175;-78
2023/02/03 12:50:20;;;;;;;7.80;5.70;;;;;;;1.35;89.71;98158.39;221534;1277;138470;-79
2023/02/03 12:55:45;;;;;;;8.10;5.50;;;;;;;1.29;89.80;98153.84;221260;1276;139027;-77
2023/02/03 13:01:00;;;;;;;9.00;5.70;;;;;;;1.19;89.72;98134.48;221354;1279;138333;-79
2023/02/03 13:06:14;;;;;;;7.90;5.70;;;;;;;1.07;90.04;98118.80;221462;1261;139088;-78
2023/02/03 13:11:37;;;;;;;9.50;6.60;;;;;;;0.94;89.92;98104.54;221614;1276;139981;-78
2023/02/03 13:16:44;;;;;;;6.20;4.90;;;;;;;0.84;90.13;98089.44;221954;1273;23419;-78
2023/02/03 13:21:48;;;;;;;9.50;6.20;;;;;;;0.77;90.33;98068.29;221685;1278;22540;-78
2023/02/03 13:26:59;;;;;;;7.00;5.90;;;;;;;0.73;91.06;98055.78;221451;1280;138061;-78
2023/02/03 13:32:26;;;;;;;7.00;5.20;;;;;;;0.74;91.10;98047.52;221611;1272;138357;-76
2023/02/03 13:37:46;;;;;;;6.30;5.20;;;;;;;0.80;91.25;98032.96;221535;1265;138438;-76
2023/02/03 13:43:17;;;;;;;10.00;6.30;;;;;;;0.85;91.03;98019.31;221659;1272;137394;-76
2023/02/03 13:48:44;;;;;;;8.90;6.00;;;;;;;0.89;90.95;98015.27;221452;1280;138851;-77
2023/02/03 13:53:49;;;;;;;7.10;4.70;;;;;;;0.91;91.13;97999.50;221773;1273;138610;-76
2023/02/03 13:59:02;;;;;;;9.80;5.90;;;;;;;0.93;91.32;97986.46;221617;1276;138683;-77
2023/02/03 14:04:25;;;;;;;8.60;5.60;;;;;;;1.00;93.16;97980.23;221848;1270;25337;-79
2023/02/03 14:09:44;;;;;;;9.30;6.90;;;;;;;1.05;91.91;97969.63;221660;1276;138323;-81
2023/02/03 14:15:18;;;;;;;10.00;6.80;;;;;;;1.08;91.61;97946.34;221995;1279;138801;-82
2023/02/03 14:20:50;;;;;;;10.00;7.00;;;;;;;1.14;91.97;97925.00;222594;1272;138686;-81
2023/02/03 14:26:07;;;;;;;10.50;6.80;;;;;;;1.18;92.00;97904.98;222553;1280;139927;-82
2023/02/03 14:31:18;;;;;;;13.40;8.20;;;;;;;1.22;92.13;97898.95;222548;1280;139342;-82
2023/02/03 14:36:43;;;;;;;11.90;7.90;;;;;;;1.31;92.15;97888.75;222722;1271;171136;-81
2023/02/03 14:42:18;;;;;;;10.70;6.50;;;;;;;1.41;91.78;97892.92;222807;1277;139062;-81
2023/02/03 14:48:20;;;;;;;11.70;7.00;;;;;;;1.42;91.79;97901.80;221455;1279;138597;-80
2023/02/03 14:53:40;;;;;;;13.20;8.60;;;;;;;1.37;92.81;97897.80;221486;1264;138918;-80
2023/02/03 14:59:03;;;;;;;12.00;8.70;;;;;;;1.36;96.89;97898.92;221804;1267;25376;-81
2023/02/03 15:04:24;;;;;;;12.30;7.30;;;;;;;1.38;97.58;97917.02;221924;1276;25407;-81
2023/02/03 15:09:46;;;;;;;13.10;8.60;;;;;;;1.42;97.78;97928.73;222786;1272;24116;-82
2023/02/03 15:14:49;;;;;;;13.00;8.10;;;;;;;1.47;97.94;97950.52;222373;1272;23758;-81
2023/02/03 15:19:54;;;;;;;10.00;7.10;;;;;;;1.54;97.93;97943.02;222373;1280;22751;-81
2023/02/03 15:25:03;;;;;;;9.00;6.50;;;;;;;1.59;97.92;97929.02;222217;1274;25246;-82
2023/02/03 15:30:26;;;;;;;9.80;6.60;;;;;;;1.68;97.99;97901.64;222200;1280;22547;-81
2023/02/03 15:35:32;;;;;;;9.20;5.70;;;;;;;1.82;98.29;97938.99;222273;1280;22569;-81
2023/02/03 15:40:40;;;;;;;12.10;7.10;;;;;;;1.95;97.42;97943.44;222343;1278;22579;-81
2023/02/03 15:45:50;;;;;;;10.80;7.40;;;;;;;2.03;96.99;97948.63;222397;1259;23265;-82
2023/02/03 15:51:01;;;;;;;5.40;3.60;;;;;;;2.15;94.80;97962.72;222417;1277;25489;-81
2023/02/03 15:56:20;;;;;;;5.00;3.40;;;;;;;2.27;94.21;97965.65;221810;1276;22540;-81
2023/02/03 16:01:34;;;;;;;;;;;;;;;2.39;93.77;97978.31;222460;1280;26685;-81
2023/02/03 16:06:42;;;;;;;7.20;3.20;;;;;;;2.49;93.63;97974.19;222333;1275;22606;-82
2023/02/03 16:12:24;;;;;;;6.80;3.40;;;;;;;2.60;93.69;97980.36;222309;1280;26458;-82
2023/02/03 16:17:35;;;;;;;9.20;3.90;;;;;;;2.68;92.79;97983.18;222201;1279;22536;-81
2023/02/03 16:22:53;;;;;;;9.70;3.90;;;;;;;2.72;92.91;97985.31;222198;1278;25535;-82
2023/02/03 16:55:45;;;;;;;14.10;4.00;;;;;;;2.82;91.99;97991.38;222342;1279;22560;-82
2023/02/03 17:00:52;;;;;;;8.50;3.40;;;;;;;2.80;91.91;97997.36;222987;1278;22569;-81
2023/02/03 17:06:02;;;;;;;9.80;3.80;;;;;;;2.80;91.86;98009.78;223454;1279;22566;-82
2023/02/03 17:11:14;;;;;;;9.10;4.00;;;;;;;2.81;92.18;98000.61;224250;1279;25950;-82
2023/02/03 17:16:24;;;;;;;8.80;3.20;;;;;;;2.84;91.79;98009.09;224399;1263;25898;-83
2023/02/03 17:21:46;;;;;;;16.40;6.80;;;;;;;2.87;91.80;98021.06;224248;1276;22575;-81
2023/02/03 17:27:01;;;;;;;11.70;4.50;;;;;;;2.90;91.62;98027.50;224616;1279;22584;-83
2023/02/03 17:32:20;;;;;;;13.60;4.90;;;;;;;2.95;91.78;98038.79;224385;1279;22628;-82
2023/02/03 17:37:26;;;;;;;12.80;5.00;;;;;;;2.98;91.79;98040.95;224272;1279;22563;-82
2023/02/03 17:42:29;;;;;;;18.20;5.00;;;;;;;2.99;91.33;98047.97;224276;1280;24996;-82
2023/02/03 17:48:01;;;;;;;12.70;4.80;;;;;;;2.96;91.35;98043.85;224230;1279;22604;-84
2023/02/03 17:53:36;;;;;;;16.80;8.00;;;;;;;2.97;91.32;98048.47;224209;1280;22539;-81
2023/02/03 17:58:43;;;;;;;15.80;6.30;;;;;;;2.99;91.57;98057.02;224294;1280;24203;-83
2023/02/03 18:04:08;;;;;;;15.10;5.00;;;;;;;2.98;91.62;98063.66;224174;1280;25265;-82
2023/02/03 18:09:24;;;;;;;12.70;4.70;;;;;;;2.99;91.63;98081.52;224162;1280;22745;-83
2023/02/03 18:14:49;;;;;;;11.30;4.30;;;;;;;2.98;92.00;98078.66;224455;1280;22556;-83
2023/02/03 18:19:59;;;;;;;13.40;4.70;;;;;;;2.95;91.73;98079.86;224245;1279;22680;-83
2023/02/03 18:25:23;;;;;;;12.80;4.70;;;;;;;2.95;91.73;98084.70;224418;1280;22559;-82
2023/02/03 18:30:48;;;;;;;17.30;5.00;;;;;;;2.94;91.94;98096.54;224771;1279;22588;-82
2023/02/03 18:36:17;;;;;;;15.80;4.30;;;;;;;2.91;92.11;98090.55;223317;1280;22551;-85
2023/02/03 18:41:35;;;;;;;10.70;3.30;;;;;;;2.86;92.32;98086.66;223148;1280;22172;-84
2023/02/03 18:47:10;;;;;;;12.60;3.90;;;;;;;2.80;92.14;98090.98;223820;1279;24392;-86
2023/02/03 18:52:18;;;;;;;8.50;3.10;;;;;;;2.79;92.44;98106.80;223226;1280;22580;-85
2023/02/03 18:57:25;;;;;;;9.60;2.40;;;;;;;2.76;92.25;98122.10;223163;1280;22551;-86
2023/02/03 19:02:41;;;;;;;9.50;2.70;;;;;;;2.69;92.18;98131.74;222545;1280;22666;-86
2023/02/03 19:07:47;;;;;;;10.50;3.30;;;;;;;2.58;92.33;98116.29;222331;1279;22566;-85
2023/02/03 19:12:50;;;;;;;17.50;3.50;;;;;;;2.51;92.52;98114.59;222519;1279;23239;-86
2023/02/03 19:17:54;;;;;;;13.90;3.50;;;;;;;2.47;92.62;98123.17;222555;1280;25353;-87
2023/02/03 19:23:07;;;;;;;13.60;3.40;;;;;;;2.43;92.74;98113.42;222847;1280;22606;-85
2023/02/03 19:28:10;;;;;;;13.90;2.60;;;;;;;2.39;93.02;98107.89;222807;1278;22657;-85
2023/02/03 19:33:29;;;;;;;13.00;3.50;;;;;;;2.39;92.94;98111.80;221951;1280;25389;-86
2023/02/03 19:38:32;;;;;;;19.40;4.80;;;;;;;2.37;93.07;98111.48;222661;1276;22671;-85
2023/02/03 19:43:35;;;;;;;16.80;4.10;;;;;;;2.37;93.22;98116.91;221828;1280;22535;-87
2023/02/03 19:48:44;;;;;;;17.10;4.60;;;;;;;2.36;92.86;98114.92;221995;1271;25424;-85
2023/02/03 19:53:57;;;;;;;18.30;5.50;;;;;;;2.34;92.96;98114.87;221804;1280;23934;-87
2023/02/03 19:59:02;;;;;;;20.10;6.10;;;;;;;2.32;93.06;98114.73;221765;1272;23239;-86
2023/02/03 20:04:06;;;;;;;19.10;6.80;;;;;;;2.32;92.85;98119.23;222705;1279;22558;-87
2023/02/03 20:09:10;;;;;;;16.50;4.80;;;;;;;2.33;93.32;98121.99;222628;1272;22547;-85
2023/02/03 20:14:17;;;;;;;22.70;5.10;;;;;;;2.35;93.28;98116.02;222766;1280;25119;-84
2023/02/03 20:19:20;;;;;;;20.00;5.20;;;;;;;2.36;93.64;98119.17;222349;1277;25873;-85
2023/02/03 20:24:36;;;;;;;18.40;5.10;;;;;;;2.38;93.84;98109.08;222571;1275;22579;-85
2023/02/03 20:29:38;;;;;;;15.00;4.30;;;;;;;2.41;93.59;98103.24;222209;1280;22533;-86
2023/02/03 20:34:45;;;;;;;21.90;5.20;;;;;;;2.44;93.65;98102.19;222465;1280;22544;-83
2023/02/03 20:39:50;;;;;;;20.10;5.50;;;;;;;2.48;93.83;98099.09;221690;1278;25590;-85
2023/02/03 20:44:54;;;;;;;20.20;7.50;;;;;;;2.51;93.83;98101.79;221844;1279;22940;-86
2023/02/03 20:49:58;;;;;;;17.50;5.30;;;;;;;2.54;93.79;98099.73;221795;1280;24801;-87
2023/02/03 20:55:15;;;;;;;21.10;5.20;;;;;;;2.57;93.79;98100.44;221984;1269;23327;-85
2023/02/03 21:00:24;;;;;;;26.80;7.10;;;;;;;2.59;93.77;98106.62;221564;1279;24741;-87
2023/02/03 21:05:36;;;;;;;14.60;5.30;;;;;;;2.62;94.01;98104.98;221794;1280;25914;-87
2023/02/03 21:10:46;;;;;;;21.60;5.60;;;;;;;2.63;93.79;98107.77;221450;1280;22542;-86
2023/02/03 21:15:53;;;;;;;21.20;5.80;;;;;;;2.67;93.89;98109.58;222711;1280;22565;-86
2023/02/03 21:20:57;;;;;;;18.80;5.00;;;;;;;2.72;93.72;98108.30;221580;1279;22491;-84
2023/02/03 21:26:00;;;;;;;18.30;5.50;;;;;;;2.74;93.52;98106.48;221541;1280;22537;-87
2023/02/03 21:31:04;;;;;;;17.60;5.50;;;;;;;2.77;93.78;98104.99;221916;1275;22535;-87
2023/02/03 21:36:23;;;;;;;17.00;4.90;;;;;;;2.79;93.65;98100.45;221705;1278;25341;-85
2023/02/03 21:41:31;;;;;;;24.20;6.30;;;;;;;2.80;93.72;98099.80;222662;1278;22552;-86
2023/02/03 21:46:36;;;;;;;16.10;4.90;;;;;;;2.82;93.88;98104.23;222538;1280;22572;-86
2023/02/03 21:51:38;;;;;;;21.10;5.70;;;;;;;2.85;93.84;98097.73;222580;1280;23345;-87
2023/02/03 21:56:41;;;;;;;16.10;6.30;;;;;;;2.87;94.05;98095.13;222499;1280;22533;-87
2023/02/03 22:01:44;;;;;;;14.00;4.30;;;;;;;2.88;93.85;98101.58;222573;1278;22741;-87
2023/02/03 22:06:52;;;;;;;16.50;4.50;;;;;;;2.92;93.84;98101.77;222892;1280;22563;-87
2023/02/03 22:12:01;;;;;;;12.90;3.90;;;;;;;2.94;93.88;98097.38;222547;1280;24238;-86
2023/02/03 22:17:11;;;;;;;13.10;3.60;;;;;;;2.95;94.11;98098.95;222744;1280;24209;-87
2023/02/03 22:22:16;;;;;;;9.20;3.70;;;;;;;2.97;93.95;98093.20;222948;1278;22550;-87
2023/02/03 22:27:23;;;;;;;13.80;4.20;;;;;;;2.97;93.78;98094.23;222890;1259;23914;-87
2023/02/03 22:32:29;;;;;;;14.60;4.30;;;;;;;2.98;93.95;98102.69;222939;1279;22608;-87
2023/02/03 22:37:34;;;;;;;12.50;3.40;;;;;;;3.00;93.89;98103.98;223202;1280;24319;-86
2023/02/03 22:42:37;;;;;;;9.60;3.70;;;;;;;3.03;93.77;98104.94;223177;1275;25287;-88
2023/02/03 22:47:40;;;;;;;13.90;3.50;;;;;;;3.04;93.98;98099.92;223111;1280;24219;-85
2023/02/03 22:52:49;;;;;;;9.20;2.90;;;;;;;3.07;93.69;98103.86;223203;1265;22556;-83
2023/02/03 22:58:01;;;;;;;10.70;3.10;;;;;;;3.08;93.98;98108.27;223058;1280;22575;-86
2023/02/03 23:03:15;;;;;;;7.00;2.20;;;;;;;3.10;94.01;98109.58;223015;1280;24258;-87
2023/02/03 23:08:19;;;;;;;6.30;2.50;;;;;;;3.11;94.24;98105.67;223400;1280;22565;-89
2023/02/03 23:13:47;;;;;;;6.90;2.80;;;;;;;3.10;93.95;98100.74;223040;1281;22524;-84
2023/02/03 23:19:02;;;;;;;8.50;3.10;;;;;;;3.08;93.77;98096.09;222910;1283;23024;-86
2023/02/03 23:24:20;;;;;;;6.80;2.90;;;;;;;3.05;93.94;98095.13;223535;1281;23175;-81
2023/02/03 23:29:31;;;;;;;7.10;3.00;;;;;;;3.05;93.87;98086.79;223611;1283;22631;-83
2023/02/03 23:40:14;;;;;;;6.60;2.40;;;;;;;3.12;94.02;98077.40;221435;1282;23834;-85
2023/02/03 23:45:36;;;;;;;8.10;2.60;;;;;;;3.12;93.75;98072.64;222690;1279;24165;-88
2023/02/03 23:50:47;;;;;;;6.70;2.60;;;;;;;3.13;93.79;98067.20;222696;1272;22538;-87
2023/02/03 23:55:55;;;;;;;6.10;2.40;;;;;;;3.14;93.91;98060.26;222715;1279;25304;-87
